Time;durP1;ratioP1;P1;durP2;ratioP2;P2;SDS_P1;SDS_P2;PMS_P1;PMS_P2;Temp;Humidity;BMP_temperature;BMP_pressure;BME280_temperature;BME280_humidity;BME280_pressure;Samples;Min_cycle;Max_cycle;Signal;HPM_P1;HPM_P2
2021/08/30 00:02:21;;;;;;;22.93;13.00;;;16.30;99.90;;;;;;5084065;28;20291;-75
2021/08/30 00:04:48;;;;;;;21.23;12.73;;;16.20;99.90;;;;;;5067936;28;20246;-76
2021/08/30 00:07:15;;;;;;;21.80;12.10;;;16.20;99.90;;;;;;5058633;28;20283;-75
2021/08/30 00:09:43;;;;;;;21.13;13.53;;;16.20;99.90;;;;;;5081150;28;20223;-75
2021/08/30 00:12:10;;;;;;;22.47;13.37;;;16.20;99.90;;;;;;5080866;28;20192;-76
2021/08/30 00:14:39;;;;;;;21.60;13.70;;;16.30;99.90;;;;;;5054610;28;20220;-75
2021/08/30 00:17:06;;;;;;;23.00;12.63;;;16.30;99.90;;;;;;5062008;28;20279;-75
2021/08/30 00:19:33;;;;;;;18.90;13.10;;;16.30;99.90;;;;;;5056023;28;20228;-75
2021/08/30 00:22:00;;;;;;;18.73;12.87;;;16.30;99.90;;;;;;5057305;28;20712;-76
2021/08/30 00:24:27;;;;;;;21.27;13.00;;;16.20;99.90;;;;;;5059671;28;20733;-75
2021/08/30 00:26:55;;;;;;;22.57;13.33;;;16.20;99.90;;;;;;5077727;28;20201;-75
2021/08/30 00:29:25;;;;;;;27.40;13.70;;;16.20;99.90;;;;;;5054283;28;20204;-75
2021/08/30 00:31:53;;;;;;;24.30;13.97;;;16.20;99.90;;;;;;5072063;28;20203;-75
2021/08/30 00:34:20;;;;;;;22.90;13.33;;;16.30;99.90;;;;;;5059936;28;20224;-76
2021/08/30 00:36:47;;;;;;;20.67;13.67;;;16.20;99.90;;;;;;5056126;28;20196;-76
2021/08/30 00:39:16;;;;;;;23.63;12.87;;;16.30;99.90;;;;;;5057387;28;20196;-77
2021/08/30 00:41:42;;;;;;;23.70;13.17;;;16.30;99.90;;;;;;5054944;28;20247;-75
2021/08/30 00:44:09;;;;;;;23.30;13.67;;;16.20;99.90;;;;;;5055132;28;20295;-75
2021/08/30 00:46:36;;;;;;;20.30;12.77;;;16.20;99.90;;;;;;5065193;28;20540;-77
2021/08/30 00:49:05;;;;;;;24.67;13.23;;;16.30;99.90;;;;;;5073755;28;20749;-76
2021/08/30 00:51:32;;;;;;;21.83;13.80;;;16.30;99.90;;;;;;5074032;28;20295;-75
2021/08/30 00:53:59;;;;;;;23.43;13.13;;;16.20;99.90;;;;;;5073899;28;20340;-75
2021/08/30 00:56:27;;;;;;;20.63;12.77;;;16.30;99.90;;;;;;5073771;28;20195;-75
2021/08/30 00:58:55;;;;;;;20.70;12.63;;;16.30;99.90;;;;;;5073905;28;20199;-76
2021/08/30 01:01:23;;;;;;;20.20;12.67;;;16.30;99.90;;;;;;5073471;28;20210;-75
2021/08/30 01:03:51;;;;;;;20.37;13.13;;;16.20;99.90;;;;;;5074111;28;20227;-76
2021/08/30 01:06:40;;;;;;;22.53;12.33;;;16.20;99.90;;;;;;5065426;28;20278;-74
2021/08/30 01:09:16;;;;;;;22.37;13.43;;;16.20;99.90;;;;;;5073751;28;20555;-75
2021/08/30 01:11:49;;;;;;;21.37;13.13;;;16.20;99.90;;;;;;5073812;28;20567;-76
2021/08/30 01:14:20;;;;;;;21.80;12.20;;;16.20;99.90;;;;;;5073687;28;20679;-76
2021/08/30 01:16:48;;;;;;;22.53;12.67;;;16.20;99.90;;;;;;5073914;28;20223;-74
2021/08/30 01:19:19;;;;;;;22.70;12.63;;;16.20;99.90;;;;;;5073361;28;20654;-76
2021/08/30 01:21:48;;;;;;;21.50;13.20;;;16.30;99.90;;;;;;5073635;28;20235;-77
2021/08/30 01:24:19;;;;;;;21.40;11.83;;;16.30;99.90;;;;;;5073131;28;20226;-77
2021/08/30 01:26:50;;;;;;;21.00;12.17;;;16.30;99.90;;;;;;5073319;28;20632;-75
2021/08/30 01:29:21;;;;;;;23.20;12.77;;;16.30;99.90;;;;;;5073141;28;20733;-75
2021/08/30 01:31:51;;;;;;;18.87;12.63;;;16.40;99.90;;;;;;5073430;28;20203;-76
2021/08/30 01:34:21;;;;;;;19.60;12.43;;;16.40;99.90;;;;;;5073177;28;20307;-75
2021/08/30 01:36:50;;;;;;;23.23;13.07;;;16.40;99.90;;;;;;5073583;28;20207;-76
2021/08/30 01:39:18;;;;;;;24.10;13.03;;;16.40;99.90;;;;;;5084544;28;20649;-76
2021/08/30 01:41:46;;;;;;;20.83;12.50;;;16.30;99.90;;;;;;5073397;28;20298;-79
2021/08/30 01:44:14;;;;;;;19.50;12.47;;;16.30;99.90;;;;;;5072830;28;20218;-77
2021/08/30 01:46:42;;;;;;;23.73;12.63;;;16.30;99.90;;;;;;5073070;28;20684;-75
2021/08/30 01:49:11;;;;;;;23.87;13.73;;;16.30;99.90;;;;;;5073114;28;20218;-75
2021/08/30 01:51:40;;;;;;;22.10;12.87;;;16.20;99.90;;;;;;5073236;28;20286;-75
2021/08/30 01:54:08;;;;;;;22.70;13.60;;;16.20;99.90;;;;;;5073071;28;20281;-75
2021/08/30 01:56:39;;;;;;;25.27;13.37;;;16.30;99.90;;;;;;5072817;28;20571;-75
2021/08/30 02:01:50;;;;;;;27.73;13.67;;;16.30;99.90;;;;;;5072964;28;20734;-77
2021/08/30 02:04:17;;;;;;;23.43;13.77;;;16.30;99.90;;;;;;5072812;28;20288;-75
2021/08/30 02:06:45;;;;;;;26.13;14.13;;;16.30;99.90;;;;;;5072876;28;20203;-76
2021/08/30 02:09:12;;;;;;;24.30;12.73;;;16.20;99.90;;;;;;5072610;28;20653;-75
2021/08/30 02:11:39;;;;;;;27.90;13.47;;;16.20;99.90;;;;;;5072545;28;20211;-76
2021/08/30 02:14:08;;;;;;;24.63;13.47;;;16.20;99.90;;;;;;5071886;28;20269;-75
2021/08/30 02:16:35;;;;;;;22.70;13.33;;;16.20;99.90;;;;;;5072946;28;20199;-75
2021/08/30 02:19:11;;;;;;;22.60;12.97;;;16.10;99.90;;;;;;5088501;28;20195;-75
2021/08/30 02:21:43;;;;;;;28.53;14.00;;;16.10;99.90;;;;;;5072904;28;20281;-75
2021/08/30 02:24:16;;;;;;;26.97;13.83;;;16.10;99.90;;;;;;5059468;28;20565;-78
2021/08/30 02:26:47;;;;;;;23.00;13.97;;;16.10;99.90;;;;;;5072638;28;20282;-75
2021/08/30 02:29:19;;;;;;;29.37;14.80;;;16.20;99.90;;;;;;5072511;28;20649;-77
2021/08/30 02:31:49;;;;;;;22.70;14.30;;;16.20;99.90;;;;;;5072865;28;20197;-76
2021/08/30 02:34:17;;;;;;;26.67;14.77;;;16.20;99.90;;;;;;5072330;28;20756;-77
2021/08/30 02:36:45;;;;;;;26.47;14.90;;;16.10;99.90;;;;;;5072714;28;20226;-75
2021/08/30 02:39:14;;;;;;;26.87;15.20;;;16.10;99.90;;;;;;5072348;28;20286;-75
2021/08/30 02:41:42;;;;;;;24.97;14.30;;;16.20;99.90;;;;;;5072796;28;20196;-75
2021/08/30 02:44:09;;;;;;;23.97;13.90;;;16.20;99.90;;;;;;5072516;28;20681;-75
2021/08/30 02:46:36;;;;;;;24.07;14.07;;;16.20;99.90;;;;;;5072654;28;20205;-77
2021/08/30 02:49:05;;;;;;;24.70;14.47;;;16.30;99.90;;;;;;5072407;28;20203;-77
2021/08/30 02:51:33;;;;;;;27.53;14.47;;;16.20;99.90;;;;;;5072590;28;20294;-75
2021/08/30 02:54:00;;;;;;;25.67;13.57;;;16.20;99.90;;;;;;5072520;28;20282;-75
2021/08/30 02:56:29;;;;;;;23.53;13.53;;;16.20;99.90;;;;;;5072237;28;20298;-76
2021/08/30 02:58:57;;;;;;;22.00;13.70;;;16.20;99.90;;;;;;5072478;28;20282;-76
2021/08/30 03:01:24;;;;;;;26.37;14.00;;;16.20;99.90;;;;;;5071987;28;20195;-78
2021/08/30 03:03:51;;;;;;;24.53;13.17;;;16.20;99.90;;;;;;5072446;28;20199;-76
2021/08/30 03:06:19;;;;;;;17.57;12.17;;;16.20;99.90;;;;;;5072218;28;20287;-75
2021/08/30 03:08:45;;;;;;;23.33;13.90;;;16.20;99.90;;;;;;5072303;28;20199;-76
2021/08/30 03:11:15;;;;;;;25.17;13.57;;;16.30;99.90;;;;;;5071941;28;20677;-75
2021/08/30 03:13:45;;;;;;;25.47;13.53;;;16.20;99.90;;;;;;5072173;28;20234;-75
2021/08/30 03:16:15;;;;;;;22.40;13.83;;;16.20;99.90;;;;;;5072035;28;20266;-75
2021/08/30 03:18:43;;;;;;;23.23;13.53;;;16.20;99.90;;;;;;5072021;28;20597;-75
2021/08/30 03:21:11;;;;;;;21.10;13.10;;;16.20;99.90;;;;;;5072022;28;20231;-75
2021/08/30 03:23:41;;;;;;;22.93;13.87;;;16.10;99.90;;;;;;5072661;28;20294;-77
2021/08/30 03:26:08;;;;;;;22.93;13.57;;;16.10;99.90;;;;;;5075779;28;20294;-75
2021/08/30 03:28:37;;;;;;;23.00;13.53;;;16.10;99.90;;;;;;5075544;28;20641;-76
2021/08/30 03:31:06;;;;;;;29.07;14.23;;;16.00;99.90;;;;;;5075972;28;20302;-74
2021/08/30 03:33:34;;;;;;;25.17;14.30;;;16.00;99.90;;;;;;5075375;28;20650;-76
2021/08/30 03:36:02;;;;;;;25.03;14.07;;;16.10;99.90;;;;;;5075381;28;20696;-75
2021/08/30 03:38:31;;;;;;;25.17;13.40;;;16.10;99.90;;;;;;5075409;28;20268;-75
2021/08/30 03:40:58;;;;;;;23.43;13.77;;;16.00;99.90;;;;;;5075496;28;20286;-76
2021/08/30 03:43:26;;;;;;;22.13;14.10;;;16.00;99.90;;;;;;5075622;28;20302;-75
2021/08/30 03:45:53;;;;;;;29.20;14.57;;;16.10;99.90;;;;;;5075439;28;20227;-77
2021/08/30 03:48:23;;;;;;;21.70;14.13;;;16.10;99.90;;;;;;5075859;28;20196;-75
2021/08/30 03:50:51;;;;;;;25.93;13.83;;;16.20;99.90;;;;;;5074966;28;20200;-74
2021/08/30 03:53:20;;;;;;;24.50;13.03;;;16.20;99.90;;;;;;5075098;28;20286;-75
2021/08/30 03:55:48;;;;;;;20.53;12.13;;;16.20;99.90;;;;;;5075326;28;20250;-77
2021/08/30 03:58:18;;;;;;;21.57;12.97;;;16.10;99.90;;;;;;5075089;28;20669;-76
2021/08/30 04:00:45;;;;;;;22.03;12.50;;;16.10;99.90;;;;;;5074588;28;20286;-76
2021/08/30 04:03:13;;;;;;;20.30;12.00;;;16.10;99.90;;;;;;5074273;28;20241;-76
2021/08/30 04:05:43;;;;;;;21.37;13.23;;;16.00;99.90;;;;;;5074801;28;20199;-76
2021/08/30 04:08:10;;;;;;;22.60;13.27;;;16.10;99.90;;;;;;5075412;28;20676;-77
2021/08/30 04:10:38;;;;;;;20.23;12.57;;;16.00;99.90;;;;;;5075533;28;20291;-76
2021/08/30 04:13:05;;;;;;;22.73;12.87;;;16.10;99.90;;;;;;5075360;28;20607;-76
2021/08/30 04:15:32;;;;;;;26.00;13.03;;;16.10;99.90;;;;;;5078755;28;20229;-76
2021/08/30 04:18:00;;;;;;;22.27;12.63;;;16.10;99.90;;;;;;5075302;28;20286;-76
2021/08/30 04:20:27;;;;;;;21.30;12.10;;;16.20;99.90;;;;;;5074640;28;20290;-75
2021/08/30 04:22:55;;;;;;;19.13;12.33;;;16.20;99.90;;;;;;5075305;28;20199;-76
2021/08/30 04:25:22;;;;;;;22.67;13.10;;;16.20;99.90;;;;;;5074832;28;20636;-77
2021/08/30 04:27:48;;;;;;;21.70;12.23;;;16.20;99.90;;;;;;5074082;28;20203;-75
2021/08/30 04:30:15;;;;;;;25.03;12.60;;;16.20;99.90;;;;;;5072415;28;20231;-75
2021/08/30 04:32:42;;;;;;;22.30;12.07;;;16.10;99.90;;;;;;5074604;28;20575;-75
2021/08/30 04:35:10;;;;;;;20.07;11.97;;;16.10;99.90;;;;;;5072250;28;20314;-75
2021/08/30 04:37:37;;;;;;;24.50;12.33;;;16.10;99.90;;;;;;5073435;28;20199;-75
2021/08/30 04:40:07;;;;;;;17.60;12.20;;;16.10;99.90;;;;;;5078132;28;20191;-76
2021/08/30 04:42:34;;;;;;;22.30;13.17;;;16.20;99.90;;;;;;5078223;28;20203;-75
2021/08/30 04:45:01;;;;;;;21.37;13.07;;;16.10;99.90;;;;;;5074045;28;20286;-74
2021/08/30 04:47:27;;;;;;;25.80;13.10;;;16.10;99.90;;;;;;5072872;28;20643;-76
2021/08/30 04:49:54;;;;;;;23.70;12.90;;;16.10;99.90;;;;;;5075248;28;20670;-76
2021/08/30 04:52:22;;;;;;;20.43;12.63;;;16.10;99.90;;;;;;5069701;28;20398;-74
2021/08/30 04:54:48;;;;;;;21.97;12.43;;;16.10;99.90;;;;;;5072349;28;20217;-76
2021/08/30 04:57:17;;;;;;;22.50;12.70;;;16.10;99.90;;;;;;5073421;28;20385;-76
2021/08/30 04:59:44;;;;;;;22.00;13.13;;;16.30;99.90;;;;;;5073157;28;20203;-76
2021/08/30 05:02:11;;;;;;;20.57;13.53;;;16.20;99.90;;;;;;5072261;28;20652;-75
2021/08/30 05:04:38;;;;;;;20.53;11.80;;;16.30;99.90;;;;;;5065761;28;20206;-74
2021/08/30 05:07:05;;;;;;;23.47;12.67;;;16.20;99.90;;;;;;5071853;28;20253;-76
2021/08/30 05:09:32;;;;;;;25.47;11.97;;;16.30;99.90;;;;;;5072245;28;20196;-76
2021/08/30 05:11:59;;;;;;;22.53;12.67;;;16.30;99.90;;;;;;5073795;28;20672;-76
2021/08/30 05:14:28;;;;;;;21.53;12.23;;;16.20;99.90;;;;;;5073498;28;20695;-74
2021/08/30 05:16:54;;;;;;;20.40;12.20;;;16.20;99.90;;;;;;5072723;28;20273;-75
2021/08/30 05:19:21;;;;;;;19.60;11.80;;;16.20;99.90;;;;;;5072099;28;20287;-75
2021/08/30 05:21:48;;;;;;;22.67;11.90;;;16.20;99.90;;;;;;5072665;28;20642;-75
2021/08/30 05:24:15;;;;;;;19.63;11.93;;;16.20;99.90;;;;;;5072963;28;20284;-74
2021/08/30 05:26:42;;;;;;;19.07;11.57;;;16.30;99.90;;;;;;5072798;28;20294;-76
2021/08/30 05:29:09;;;;;;;21.07;11.37;;;16.40;99.90;;;;;;5073284;28;20286;-75
2021/08/30 05:31:37;;;;;;;19.10;11.80;;;16.50;99.90;;;;;;5072286;28;20294;-75
2021/08/30 05:34:04;;;;;;;19.47;11.63;;;16.40;99.90;;;;;;5072727;28;20200;-76
2021/08/30 05:36:31;;;;;;;19.33;11.43;;;16.30;99.90;;;;;;5072878;28;20227;-75
2021/08/30 05:38:58;;;;;;;22.17;11.13;;;16.30;99.90;;;;;;5072341;28;20673;-74
2021/08/30 05:41:25;;;;;;;17.07;10.57;;;16.30;99.90;;;;;;5072759;28;20588;-76
2021/08/30 05:43:52;;;;;;;22.00;11.23;;;16.20;99.90;;;;;;5072048;28;20260;-75
2021/08/30 05:46:19;;;;;;;16.30;10.57;;;16.20;99.90;;;;;;5072652;28;20246;-75
2021/08/30 05:48:49;;;;;;;20.50;11.40;;;16.30;99.90;;;;;;5073001;28;20278;-75
2021/08/30 05:51:16;;;;;;;18.23;11.30;;;16.40;99.90;;;;;;5073295;28;20290;-74
2021/08/30 05:53:43;;;;;;;17.93;10.90;;;16.40;99.90;;;;;;5073157;28;20201;-76
2021/08/30 05:56:11;;;;;;;15.70;10.73;;;16.50;99.90;;;;;;5072551;28;20219;-75
2021/08/30 05:58:38;;;;;;;19.33;10.73;;;16.60;99.90;;;;;;5072633;28;20231;-76
2021/08/30 06:01:06;;;;;;;17.70;10.93;;;16.60;99.90;;;;;;5072816;28;20291;-75
2021/08/30 06:03:33;;;;;;;16.37;10.57;;;16.60;99.90;;;;;;5072673;28;20293;-75
2021/08/30 06:06:01;;;;;;;18.83;11.10;;;16.50;99.90;;;;;;5072885;28;20200;-74
2021/08/30 06:08:28;;;;;;;17.17;11.57;;;16.80;99.90;;;;;;5072526;28;20629;-75
2021/08/30 06:10:57;;;;;;;17.30;11.50;;;16.90;99.90;;;;;;5073153;28;20282;-74
2021/08/30 06:13:24;;;;;;;18.20;11.10;;;17.00;99.90;;;;;;5072888;28;20196;-75
2021/08/30 06:15:51;;;;;;;17.23;10.80;;;17.00;99.90;;;;;;5072329;28;20318;-76
2021/08/30 06:18:18;;;;;;;16.67;10.33;;;17.00;99.90;;;;;;5070440;28;20574;-75
2021/08/30 06:20:45;;;;;;;18.07;10.63;;;17.10;99.90;;;;;;5072431;28;20258;-76
2021/08/30 06:23:13;;;;;;;16.13;10.83;;;17.10;99.90;;;;;;5070955;28;20197;-77
2021/08/30 06:25:40;;;;;;;18.90;10.90;;;17.10;99.90;;;;;;5075870;28;20223;-77
2021/08/30 06:28:07;;;;;;;20.47;11.63;;;17.10;99.90;;;;;;5074441;28;20275;-76
2021/08/30 06:30:35;;;;;;;20.50;10.83;;;17.00;99.90;;;;;;5072740;28;20279;-76
2021/08/30 06:33:02;;;;;;;15.33;10.73;;;16.90;99.90;;;;;;5072444;28;20238;-76
2021/08/30 06:35:29;;;;;;;17.53;10.80;;;16.80;99.90;;;;;;5072021;28;20259;-77
2021/08/30 06:37:56;;;;;;;16.47;10.23;;;16.80;99.90;;;;;;5072569;28;20207;-75
2021/08/30 06:40:24;;;;;;;19.23;11.67;;;16.90;99.90;;;;;;5071801;28;20233;-77
2021/08/30 06:42:52;;;;;;;18.23;12.00;;;17.10;99.90;;;;;;5072382;28;20203;-78
2021/08/30 06:45:22;;;;;;;19.10;12.20;;;17.00;99.90;;;;;;5074135;28;20192;-78
2021/08/30 06:47:50;;;;;;;21.77;11.60;;;17.00;99.90;;;;;;5086849;28;20198;-80
2021/08/30 06:50:16;;;;;;;21.73;11.77;;;17.20;99.90;;;;;;5072318;28;20294;-79
2021/08/30 06:52:43;;;;;;;23.97;11.70;;;17.20;99.90;;;;;;5077792;28;20208;-79
2021/08/30 06:55:10;;;;;;;22.63;12.07;;;17.20;99.90;;;;;;5072555;28;20624;-78
2021/08/30 06:57:39;;;;;;;18.10;10.53;;;17.40;99.90;;;;;;5047061;28;20208;-79
2021/08/30 07:00:07;;;;;;;18.03;10.73;;;17.30;99.90;;;;;;5075101;28;20202;-79
2021/08/30 07:02:34;;;;;;;18.77;11.33;;;17.30;99.90;;;;;;5091831;28;20268;-78
2021/08/30 07:05:01;;;;;;;16.97;11.77;;;17.20;99.90;;;;;;5076547;28;20207;-78
2021/08/30 07:07:28;;;;;;;19.03;11.53;;;17.20;99.90;;;;;;5088898;28;20622;-79
2021/08/30 07:09:56;;;;;;;19.67;11.07;;;17.20;99.90;;;;;;5095414;28;20199;-76
2021/08/30 07:12:24;;;;;;;20.73;11.70;;;17.20;99.90;;;;;;5096115;28;20293;-80
2021/08/30 07:14:52;;;;;;;20.70;11.50;;;17.40;99.90;;;;;;5093070;28;20645;-79
2021/08/30 07:17:19;;;;;;;21.33;12.43;;;17.60;99.90;;;;;;5075748;28;20223;-80
2021/08/30 07:19:46;;;;;;;17.73;11.27;;;17.70;99.90;;;;;;5072059;28;20202;-79
2021/08/30 07:22:14;;;;;;;22.20;12.20;;;17.50;99.90;;;;;;5081324;28;20562;-76
2021/08/30 07:24:41;;;;;;;21.13;11.93;;;17.80;99.90;;;;;;5076067;28;20624;-76
2021/08/30 07:27:08;;;;;;;20.37;11.70;;;18.00;99.90;;;;;;5070119;28;20204;-83
2021/08/30 07:29:35;;;;;;;20.50;11.57;;;18.10;99.90;;;;;;5082695;28;20555;-82
2021/08/30 07:32:04;;;;;;;17.37;11.63;;;18.30;99.90;;;;;;5086841;28;20199;-76
2021/08/30 07:34:31;;;;;;;22.33;11.30;;;18.20;99.90;;;;;;5085090;28;20291;-80
2021/08/30 07:36:58;;;;;;;17.23;11.13;;;18.30;99.90;;;;;;5084553;28;20301;-79
2021/08/30 07:39:25;;;;;;;20.20;11.43;;;18.10;99.90;;;;;;5093292;28;20218;-82
2021/08/30 07:41:52;;;;;;;22.73;11.37;;;18.00;99.90;;;;;;5095668;28;20278;-79
2021/08/30 07:44:20;;;;;;;21.17;11.60;;;17.90;99.90;;;;;;5094052;28;20245;-78
2021/08/30 07:46:47;;;;;;;20.13;12.67;;;17.90;99.90;;;;;;5075272;28;20269;-81
2021/08/30 07:49:15;;;;;;;16.70;11.00;;;17.80;99.90;;;;;;5074947;28;20289;-78
2021/08/30 07:51:42;;;;;;;17.37;12.43;;;17.90;99.90;;;;;;5075542;28;20670;-78
2021/08/30 07:54:10;;;;;;;20.47;12.10;;;17.90;99.90;;;;;;5075298;28;20200;-81
2021/08/30 07:56:38;;;;;;;20.33;11.97;;;18.00;99.90;;;;;;5072882;28;20655;-80
2021/08/30 07:59:06;;;;;;;19.13;12.10;;;18.40;99.90;;;;;;5073237;28;20204;-77
2021/08/30 08:01:33;;;;;;;20.73;12.50;;;18.40;99.90;;;;;;5080621;28;20262;-80
2021/08/30 08:04:00;;;;;;;22.27;12.87;;;18.30;99.90;;;;;;5062432;28;20191;-81
2021/08/30 08:06:28;;;;;;;20.33;12.20;;;18.20;99.90;;;;;;5073459;28;20202;-79
2021/08/30 08:08:55;;;;;;;21.60;12.93;;;18.40;99.90;;;;;;5071144;28;20576;-79
2021/08/30 08:11:22;;;;;;;24.33;12.10;;;18.40;99.90;;;;;;5072564;28;20475;-79
2021/08/30 08:13:49;;;;;;;29.93;13.50;;;18.50;99.90;;;;;;5073898;28;20207;-78
2021/08/30 08:16:16;;;;;;;20.27;12.30;;;18.40;99.90;;;;;;5078412;28;20250;-77
2021/08/30 08:18:44;;;;;;;19.53;11.83;;;18.60;99.90;;;;;;5080813;28;20204;-78
2021/08/30 08:21:13;;;;;;;17.03;11.77;;;18.80;99.90;;;;;;5066875;28;20235;-79
2021/08/30 08:23:41;;;;;;;19.27;11.67;;;19.00;99.90;;;;;;5064212;28;20634;-78
2021/08/30 08:26:08;;;;;;;18.60;12.37;;;19.10;99.90;;;;;;5063549;28;20227;-80
2021/08/30 08:28:35;;;;;;;19.70;13.07;;;19.00;99.90;;;;;;5062823;28;20204;-80
2021/08/30 08:31:02;;;;;;;18.27;12.23;;;19.40;99.90;;;;;;5074507;28;20215;-80
2021/08/30 08:33:29;;;;;;;18.03;12.43;;;19.20;99.90;;;;;;5074314;28;20206;-79
2021/08/30 08:35:56;;;;;;;18.97;12.17;;;18.90;99.90;;;;;;5070252;28;20279;-77
2021/08/30 08:38:23;;;;;;;20.33;12.17;;;19.40;99.90;;;;;;5064710;28;20200;-79
2021/08/30 08:40:52;;;;;;;19.73;12.17;;;19.10;99.90;;;;;;5064136;28;20208;-79
2021/08/30 08:43:21;;;;;;;21.17;11.67;;;19.20;99.90;;;;;;5063150;28;20618;-80
2021/08/30 08:45:50;;;;;;;18.43;12.93;;;20.00;99.90;;;;;;5072050;28;20596;-77
2021/08/30 08:48:20;;;;;;;20.70;13.73;;;20.70;99.90;;;;;;5068675;28;20200;-79
2021/08/30 08:50:47;;;;;;;20.50;12.87;;;20.50;99.90;;;;;;5073434;28;20340;-80
2021/08/30 08:53:14;;;;;;;23.77;13.80;;;19.70;99.90;;;;;;5063252;28;20236;-81
2021/08/30 08:55:41;;;;;;;23.67;13.47;;;19.20;99.90;;;;;;5056318;28;20196;-79
2021/08/30 08:58:10;;;;;;;19.63;12.90;;;19.30;99.90;;;;;;5069973;28;20304;-79
2021/08/30 09:00:38;;;;;;;19.53;14.03;;;19.50;99.90;;;;;;5076074;28;20200;-79
2021/08/30 09:03:12;;;;;;;17.73;13.93;;;19.60;99.90;;;;;;5071221;28;20349;-81
2021/08/30 09:05:39;;;;;;;21.13;14.17;;;19.80;99.90;;;;;;5072997;28;20605;-79
2021/08/30 09:08:07;;;;;;;21.20;13.77;;;19.80;99.90;;;;;;5072905;28;20231;-80
2021/08/30 09:10:39;;;;;;;22.33;14.03;;;19.90;99.90;;;;;;5078423;28;20204;-79
2021/08/30 09:13:09;;;;;;;21.27;13.20;;;20.40;99.90;;;;;;5073510;28;20191;-80
2021/08/30 09:15:41;;;;;;;19.00;12.50;;;20.40;99.90;;;;;;5073341;28;20249;-80
2021/08/30 09:18:10;;;;;;;21.13;13.50;;;19.90;99.90;;;;;;5071597;28;20231;-80
2021/08/30 09:20:38;;;;;;;19.77;13.37;;;19.90;99.90;;;;;;5075990;28;20294;-82
2021/08/30 09:23:15;;;;;;;18.47;13.53;;;19.80;99.90;;;;;;5075887;28;20212;-80
2021/08/30 09:25:43;;;;;;;20.77;13.93;;;20.10;99.90;;;;;;5079396;28;20637;-82
2021/08/30 09:28:11;;;;;;;20.40;13.60;;;20.00;99.90;;;;;;5074522;28;20207;-81
2021/08/30 09:30:39;;;;;;;19.90;13.37;;;20.40;99.90;;;;;;5070712;28;20275;-83
2021/08/30 09:33:06;;;;;;;21.73;13.50;;;20.10;99.90;;;;;;5076507;28;20202;-83
2021/08/30 09:35:33;;;;;;;21.37;13.47;;;20.20;99.90;;;;;;5077366;28;20200;-84
2021/08/30 09:38:00;;;;;;;18.93;13.33;;;20.20;99.90;;;;;;5085431;28;20276;-78
2021/08/30 09:40:28;;;;;;;20.73;12.80;;;19.70;99.90;;;;;;5076316;28;20196;-84
2021/08/30 09:42:57;;;;;;;19.53;12.83;;;19.80;99.90;;;;;;5084856;28;20507;-81
2021/08/30 09:45:28;;;;;;;21.63;12.90;;;20.30;99.90;;;;;;5080059;28;20206;-79
2021/08/30 09:47:57;;;;;;;19.23;12.63;;;20.40;99.90;;;;;;5077970;28;20231;-80
2021/08/30 09:50:29;;;;;;;22.10;13.77;;;20.20;99.90;;;;;;5073596;28;20632;-77
2021/08/30 09:52:57;;;;;;;23.77;13.23;;;20.00;99.90;;;;;;5081516;28;20270;-80
2021/08/30 09:55:24;;;;;;;18.50;12.67;;;19.70;99.90;;;;;;5079414;28;20303;-82
2021/08/30 09:57:52;;;;;;;26.27;13.37;;;19.60;99.90;;;;;;5075528;28;20211;-79
2021/08/30 10:00:21;;;;;;;20.67;13.57;;;19.40;99.90;;;;;;5072951;28;20283;-82
2021/08/30 10:02:53;;;;;;;20.13;13.13;;;19.30;99.90;;;;;;5085990;28;20186;-81
2021/08/30 10:05:21;;;;;;;20.90;12.33;;;19.30;99.90;;;;;;5080639;28;20585;-82
2021/08/30 10:07:49;;;;;;;21.27;12.93;;;19.40;99.90;;;;;;5073790;28;20649;-81
2021/08/30 10:10:18;;;;;;;19.07;12.57;;;20.00;99.90;;;;;;5078416;28;20195;-81
2021/08/30 10:12:45;;;;;;;19.53;12.73;;;20.30;99.90;;;;;;5067869;28;20473;-77
2021/08/30 10:15:13;;;;;;;18.63;12.70;;;20.40;99.90;;;;;;5069751;28;20195;-76
2021/08/30 10:17:44;;;;;;;18.30;12.53;;;20.10;99.90;;;;;;5073408;28;20317;-78
2021/08/30 10:20:17;;;;;;;18.13;12.10;;;20.30;99.90;;;;;;5066492;28;20325;-78
2021/08/30 10:22:54;;;;;;;20.93;12.77;;;20.10;99.90;;;;;;5061901;28;20199;-78
2021/08/30 10:25:21;;;;;;;16.37;12.23;;;20.40;99.90;;;;;;5063529;28;20194;-77
2021/08/30 10:27:56;;;;;;;18.17;12.57;;;20.70;99.90;;;;;;5061693;28;20196;-78
2021/08/30 10:30:24;;;;;;;17.33;12.33;;;21.30;99.90;;;;;;5063937;28;20713;-80
2021/08/30 10:32:55;;;;;;;18.30;11.77;;;21.30;99.90;;;;;;5064391;28;20283;-77
2021/08/30 10:35:25;;;;;;;16.23;12.10;;;21.20;99.90;;;;;;5066677;28;20203;-81
2021/08/30 10:37:58;;;;;;;15.52;12.13;;;21.10;99.90;;;;;;5064236;28;20617;-77
2021/08/30 10:40:26;;;;;;;17.80;12.33;;;20.70;99.90;;;;;;5068022;28;20198;-77
2021/08/30 10:43:06;;;;;;;18.30;12.10;;;20.60;99.90;;;;;;5065286;28;20212;-76
2021/08/30 10:45:35;;;;;;;16.63;12.37;;;20.30;99.90;;;;;;5066085;28;20617;-78
2021/08/30 10:48:05;;;;;;;14.40;11.40;;;20.40;99.90;;;;;;5070463;28;20609;-77
2021/08/30 10:50:40;;;;;;;17.70;12.17;;;20.50;99.90;;;;;;5072052;28;20215;-78
2021/08/30 10:53:09;;;;;;;17.77;11.60;;;20.50;99.90;;;;;;5068581;28;20322;-78
2021/08/30 10:55:38;;;;;;;17.70;11.10;;;20.80;99.90;;;;;;5074606;28;20227;-78
2021/08/30 10:58:14;;;;;;;18.50;11.73;;;21.00;99.90;;;;;;5069802;28;20269;-78
2021/08/30 11:00:42;;;;;;;19.33;10.97;;;21.10;99.90;;;;;;5072997;28;20230;-77
2021/08/30 11:03:09;;;;;;;14.10;10.77;;;21.60;99.90;;;;;;5073810;28;20259;-80
2021/08/30 11:05:39;;;;;;;14.73;10.80;;;23.00;99.90;;;;;;5070762;28;20294;-79
2021/08/30 11:08:06;;;;;;;13.95;10.60;;;23.20;99.90;;;;;;5066820;28;20235;-80
2021/08/30 11:10:33;;;;;;;17.55;11.35;;;23.00;99.90;;;;;;5067635;28;20291;-82
2021/08/30 11:13:01;;;;;;;14.02;10.75;;;22.90;99.90;;;;;;5076734;28;20218;-81
2021/08/30 11:15:32;;;;;;;17.65;10.73;;;22.70;99.90;;;;;;5074707;28;20600;-82
2021/08/30 11:18:01;;;;;;;13.35;9.23;;;21.90;99.90;;;;;;5074703;28;20219;-80
2021/08/30 11:20:28;;;;;;;11.75;9.20;;;22.20;99.90;;;;;;5066636;28;20203;-80
2021/08/30 11:22:56;;;;;;;15.18;9.90;;;22.00;99.90;;;;;;5076761;28;20246;-81
2021/08/30 11:25:23;;;;;;;15.90;10.43;;;22.50;99.90;;;;;;5063827;28;20231;-78
2021/08/30 11:27:51;;;;;;;14.13;11.05;;;22.50;99.90;;;;;;5072996;28;20571;-82
2021/08/30 11:30:20;;;;;;;14.65;10.63;;;22.20;99.90;;;;;;5074085;28;20207;-76
2021/08/30 11:32:50;;;;;;;26.33;11.77;;;22.20;99.90;;;;;;5077086;28;20207;-79
2021/08/30 11:35:17;;;;;;;12.35;10.65;;;22.20;99.90;;;;;;5071632;28;20205;-82
2021/08/30 11:37:44;;;;;;;18.08;11.75;;;22.50;99.90;;;;;;5078433;28;20254;-80
2021/08/30 11:40:15;;;;;;;18.90;11.05;;;22.90;99.90;;;;;;5080642;28;20203;-77
2021/08/30 11:42:44;;;;;;;14.05;11.07;;;22.30;99.90;;;;;;5087548;28;20221;-79
2021/08/30 11:45:14;;;;;;;20.60;11.52;;;22.50;99.90;;;;;;5080754;28;20196;-80
2021/08/30 11:47:42;;;;;;;19.80;12.07;;;22.90;99.90;;;;;;5072860;28;20205;-78
2021/08/30 11:50:12;;;;;;;18.20;11.98;;;22.30;99.90;;;;;;5068005;28;20207;-80
2021/08/30 11:52:41;;;;;;;18.85;11.82;;;21.90;99.90;;;;;;5069450;28;20618;-82
2021/08/30 11:55:11;;;;;;;19.02;12.40;;;21.70;99.90;;;;;;5073199;28;20199;-81
2021/08/30 11:57:43;;;;;;;19.38;12.23;;;21.80;99.90;;;;;;5074317;28;20273;-77
2021/08/30 12:00:14;;;;;;;20.30;11.43;;;22.20;99.90;;;;;;5074243;28;20196;-77
2021/08/30 12:02:42;;;;;;;17.27;12.05;;;22.40;99.90;;;;;;5067478;28;20313;-77
2021/08/30 12:05:11;;;;;;;16.02;11.70;;;22.10;99.90;;;;;;5066287;28;20204;-80
2021/08/30 12:07:39;;;;;;;19.83;11.98;;;22.20;99.90;;;;;;5069244;28;20215;-80
2021/08/30 12:10:08;;;;;;;20.08;11.55;;;22.30;99.90;;;;;;5075192;28;20234;-78
2021/08/30 12:12:50;;;;;;;19.17;11.68;;;22.20;99.90;;;;;;5074587;28;20216;-79
2021/08/30 12:15:20;;;;;;;15.38;10.50;;;21.80;99.90;;;;;;5082969;28;20234;-80
2021/08/30 12:17:51;;;;;;;17.20;10.57;;;22.10;99.90;;;;;;5073555;28;20269;-79
2021/08/30 12:20:20;;;;;;;13.27;10.20;;;22.00;99.90;;;;;;5062020;28;20200;-77
2021/08/30 12:22:49;;;;;;;14.65;10.57;;;22.50;99.90;;;;;;5069976;28;20215;-81
2021/08/30 12:25:20;;;;;;;16.00;11.50;;;22.40;99.90;;;;;;5091265;28;20257;-82
2021/08/30 12:27:51;;;;;;;19.02;14.32;;;23.10;99.90;;;;;;5087442;28;20227;-81
2021/08/30 12:30:23;;;;;;;21.63;15.20;;;23.50;99.90;;;;;;5074596;28;20204;-79
2021/08/30 12:33:06;;;;;;;19.95;14.82;;;23.60;99.90;;;;;;5077866;28;20617;-81
2021/08/30 12:35:36;;;;;;;18.35;10.55;;;23.60;99.90;;;;;;5059016;28;20269;-79
2021/08/30 12:38:06;;;;;;;17.27;13.02;;;23.50;99.90;;;;;;5065103;28;20211;-81